Time;durP1;ratioP1;P1;durP2;ratioP2;P2;SDS_P1;SDS_P2;PMS_P1;PMS_P2;Temp;Humidity;BMP_temperature;BMP_pressure;BME280_temperature;BME280_humidity;BME280_pressure;Samples;Min_cycle;Max_cycle;Signal;HPM_P1;HPM_P2
2021/10/26 00:00:28;;;;;;;14.03;12.93;;;12.20;99.90;;;;;;5072000;28;20469;-67
2021/10/26 00:02:55;;;;;;;15.87;14.67;;;12.20;99.90;;;;;;5072544;28;20479;-65
2021/10/26 00:05:22;;;;;;;14.37;13.07;;;12.20;99.90;;;;;;5072710;28;20447;-67
2021/10/26 00:07:48;;;;;;;13.73;12.53;;;12.20;99.90;;;;;;5065179;28;20448;-65
2021/10/26 00:10:15;;;;;;;15.57;14.37;;;12.20;99.90;;;;;;5052434;28;20448;-65
2021/10/26 00:12:42;;;;;;;14.37;13.27;;;12.20;99.90;;;;;;5052263;28;20465;-65
2021/10/26 00:15:11;;;;;;;14.83;13.53;;;12.20;99.90;;;;;;5052473;28;20444;-65
2021/10/26 00:17:38;;;;;;;14.80;13.57;;;12.10;99.90;;;;;;5057661;28;20447;-65
2021/10/26 00:20:06;;;;;;;15.47;14.17;;;12.10;99.90;;;;;;5072189;28;20454;-67
2021/10/26 00:22:33;;;;;;;14.43;13.33;;;12.10;99.90;;;;;;5071566;28;20459;-67
2021/10/26 00:25:00;;;;;;;14.73;13.67;;;12.10;99.90;;;;;;5072332;28;20451;-67
2021/10/26 00:27:27;;;;;;;15.23;13.80;;;12.10;99.90;;;;;;5065805;28;20451;-67
2021/10/26 00:29:53;;;;;;;15.13;13.27;;;12.10;99.90;;;;;;5051963;28;20446;-65
2021/10/26 00:32:21;;;;;;;13.50;12.30;;;12.10;99.90;;;;;;5052004;28;20853;-65
2021/10/26 00:34:48;;;;;;;14.00;12.90;;;12.10;99.90;;;;;;5051988;28;20483;-67
2021/10/26 00:37:15;;;;;;;14.47;13.27;;;12.10;99.90;;;;;;5056231;28;20453;-65
2021/10/26 00:39:42;;;;;;;12.50;11.60;;;12.10;99.90;;;;;;5071988;28;20442;-65
2021/10/26 00:42:10;;;;;;;13.13;12.07;;;12.10;99.90;;;;;;5072023;28;20470;-67
2021/10/26 00:44:37;;;;;;;14.40;13.37;;;12.10;99.90;;;;;;5072160;28;20465;-67
2021/10/26 00:47:04;;;;;;;13.73;12.63;;;12.10;99.90;;;;;;5072026;28;20451;-67
2021/10/26 00:49:33;;;;;;;13.60;12.40;;;12.10;99.90;;;;;;5063764;28;20527;-65
2021/10/26 00:52:00;;;;;;;15.17;13.87;;;12.10;99.90;;;;;;5051679;28;20471;-67
2021/10/26 00:54:26;;;;;;;14.67;13.57;;;12.10;99.90;;;;;;5051822;28;20494;-67
2021/10/26 00:56:53;;;;;;;13.27;12.03;;;12.10;99.90;;;;;;5051937;28;20813;-65
2021/10/26 00:59:20;;;;;;;15.03;13.70;;;12.10;99.90;;;;;;5070212;28;20444;-67
2021/10/26 01:01:49;;;;;;;15.07;13.77;;;12.00;99.90;;;;;;5071808;28;20482;-67
2021/10/26 01:04:15;;;;;;;14.07;12.70;;;12.00;99.90;;;;;;5071759;28;20444;-67
2021/10/26 01:06:44;;;;;;;14.10;12.80;;;11.90;99.90;;;;;;5071808;28;20451;-65
2021/10/26 01:09:11;;;;;;;14.93;13.63;;;11.90;99.90;;;;;;5053378;28;20487;-67
2021/10/26 01:11:38;;;;;;;16.60;14.93;;;11.90;99.90;;;;;;5051659;28;20451;-65
2021/10/26 01:14:05;;;;;;;15.73;14.53;;;11.90;99.90;;;;;;5052670;28;20506;-67
2021/10/26 01:16:32;;;;;;;14.30;13.20;;;11.90;99.90;;;;;;5051609;28;20444;-67
2021/10/26 01:18:59;;;;;;;14.53;13.40;;;11.90;99.90;;;;;;5051587;28;20455;-67
2021/10/26 01:21:27;;;;;;;15.70;13.90;;;11.90;99.90;;;;;;5071379;28;20443;-67
2021/10/26 01:23:54;;;;;;;15.07;13.97;;;12.00;99.90;;;;;;5071645;28;20467;-67
2021/10/26 01:26:21;;;;;;;16.17;14.67;;;12.00;99.90;;;;;;5071718;28;20443;-67
2021/10/26 01:28:47;;;;;;;17.93;14.40;;;12.00;99.90;;;;;;5071488;28;20454;-67
2021/10/26 01:31:15;;;;;;;16.40;14.80;;;12.00;99.90;;;;;;5070661;28;20450;-67
2021/10/26 01:33:42;;;;;;;16.30;14.47;;;11.90;99.90;;;;;;5051369;28;20846;-67
2021/10/26 01:36:09;;;;;;;16.80;15.20;;;11.90;99.90;;;;;;5055506;28;20502;-67
2021/10/26 01:38:38;;;;;;;15.00;13.70;;;11.90;99.90;;;;;;5055230;28;20459;-67
2021/10/26 01:41:04;;;;;;;17.30;14.20;;;11.90;99.90;;;;;;5055548;28;20502;-67
2021/10/26 01:43:31;;;;;;;15.07;13.80;;;11.90;99.90;;;;;;5056109;28;20456;-67
2021/10/26 01:45:58;;;;;;;18.80;16.87;;;11.90;99.90;;;;;;5075403;28;20443;-67
2021/10/26 01:48:27;;;;;;;15.07;13.80;;;11.90;99.90;;;;;;5075121;28;20443;-67
2021/10/26 01:50:54;;;;;;;15.70;14.30;;;12.00;99.90;;;;;;5075336;28;20451;-67
2021/10/26 01:53:21;;;;;;;15.30;14.10;;;12.00;99.90;;;;;;5074894;28;20487;-67
2021/10/26 01:55:49;;;;;;;15.00;13.43;;;12.00;99.90;;;;;;5071936;28;20455;-67
2021/10/26 01:58:17;;;;;;;16.13;14.57;;;12.00;99.90;;;;;;5054768;28;20478;-67
2021/10/26 02:00:44;;;;;;;14.17;12.90;;;11.90;99.90;;;;;;5054928;28;20450;-67
2021/10/26 02:03:10;;;;;;;14.43;12.63;;;11.90;99.90;;;;;;5054851;28;20467;-67
2021/10/26 02:05:37;;;;;;;14.47;12.70;;;11.90;99.90;;;;;;5069740;28;20458;-67
2021/10/26 02:08:04;;;;;;;14.37;12.80;;;11.90;99.90;;;;;;5074781;28;20435;-67
2021/10/26 02:10:31;;;;;;;15.43;14.13;;;11.90;99.90;;;;;;5074936;28;20439;-67
2021/10/26 02:12:59;;;;;;;15.73;14.50;;;11.90;99.90;;;;;;5074684;28;20474;-67
2021/10/26 02:15:26;;;;;;;15.47;14.17;;;11.90;99.90;;;;;;5060910;28;20487;-67
2021/10/26 02:17:52;;;;;;;16.33;14.60;;;11.90;99.90;;;;;;5054571;28;20443;-67
2021/10/26 02:20:19;;;;;;;15.03;13.40;;;11.90;99.90;;;;;;5055187;28;20451;-67
2021/10/26 02:22:46;;;;;;;15.50;13.13;;;11.90;99.90;;;;;;5054622;28;20471;-67
2021/10/26 02:25:12;;;;;;;14.43;13.20;;;11.90;99.90;;;;;;5054555;28;20444;-67
2021/10/26 02:27:39;;;;;;;14.47;13.17;;;11.80;99.90;;;;;;5070569;28;20454;-67
2021/10/26 02:30:08;;;;;;;14.90;13.13;;;11.90;99.90;;;;;;5074251;28;20474;-67
2021/10/26 02:32:35;;;;;;;14.37;13.07;;;11.90;99.90;;;;;;5074288;28;20517;-67
2021/10/26 02:35:02;;;;;;;14.10;12.90;;;11.90;99.90;;;;;;5074288;28;20482;-67
2021/10/26 02:37:28;;;;;;;14.80;13.50;;;11.90;99.90;;;;;;5073634;28;20947;-67
2021/10/26 02:39:56;;;;;;;13.40;12.20;;;11.90;99.90;;;;;;5054165;28;20459;-67
2021/10/26 02:42:22;;;;;;;13.93;12.70;;;11.90;99.90;;;;;;5054272;28;20820;-67
2021/10/26 02:44:49;;;;;;;13.73;12.53;;;11.90;99.90;;;;;;5054260;28;20944;-67
2021/10/26 02:47:17;;;;;;;14.50;13.20;;;11.90;99.90;;;;;;5053135;28;20455;-67
2021/10/26 02:49:44;;;;;;;15.07;13.67;;;12.00;99.90;;;;;;5056858;28;20811;-67
2021/10/26 02:52:11;;;;;;;13.77;12.77;;;11.90;99.90;;;;;;5074049;28;20570;-67
2021/10/26 02:54:37;;;;;;;16.27;14.10;;;11.90;99.90;;;;;;5073956;28;20487;-67
2021/10/26 02:57:04;;;;;;;15.43;13.07;;;12.00;99.90;;;;;;5074151;28;20447;-67
2021/10/26 02:59:31;;;;;;;15.60;13.43;;;12.00;99.90;;;;;;5073730;28;20812;-67
2021/10/26 03:01:58;;;;;;;15.67;14.20;;;11.90;99.90;;;;;;5069779;28;20455;-67
2021/10/26 03:04:26;;;;;;;13.70;12.40;;;11.90;99.90;;;;;;5053909;28;20447;-67
2021/10/26 03:06:52;;;;;;;14.40;13.10;;;11.90;99.90;;;;;;5054123;28;20807;-67
2021/10/26 03:09:19;;;;;;;14.67;13.50;;;11.90;99.90;;;;;;5053509;28;20811;-67
2021/10/26 03:11:46;;;;;;;14.90;12.67;;;11.90;99.90;;;;;;5053631;28;20444;-67
2021/10/26 03:14:13;;;;;;;14.53;12.97;;;11.90;99.90;;;;;;5059846;28;20490;-67
2021/10/26 03:16:40;;;;;;;15.40;14.10;;;11.90;99.90;;;;;;5073456;28;20542;-67
2021/10/26 03:19:07;;;;;;;16.30;13.70;;;12.00;99.90;;;;;;5073281;28;20543;-66
2021/10/26 03:21:36;;;;;;;15.23;13.83;;;11.90;99.90;;;;;;5073572;28;20489;-67
2021/10/26 03:24:04;;;;;;;15.60;13.77;;;11.90;99.90;;;;;;5073215;28;20456;-66
2021/10/26 03:26:31;;;;;;;16.03;14.13;;;11.90;99.90;;;;;;5064357;28;20456;-67
2021/10/26 03:28:58;;;;;;;15.90;14.47;;;11.90;99.90;;;;;;5053239;28;20455;-66
2021/10/26 03:31:24;;;;;;;16.40;15.00;;;11.90;99.90;;;;;;5053242;28;20455;-66
2021/10/26 03:33:51;;;;;;;17.90;16.27;;;11.90;99.90;;;;;;5053631;28;20487;-66
2021/10/26 03:36:18;;;;;;;18.67;16.07;;;11.80;99.90;;;;;;5073262;28;20451;-66
2021/10/26 03:38:47;;;;;;;16.17;14.80;;;11.80;99.90;;;;;;5072894;28;20447;-67
2021/10/26 03:41:14;;;;;;;18.40;16.87;;;11.80;99.90;;;;;;5073140;28;20454;-66
2021/10/26 03:43:41;;;;;;;18.83;15.07;;;11.80;99.90;;;;;;5072976;28;20459;-67
2021/10/26 03:46:08;;;;;;;15.77;14.50;;;11.80;99.90;;;;;;5069554;28;20443;-66
2021/10/26 03:48:35;;;;;;;18.33;16.80;;;11.70;99.90;;;;;;5072641;28;20446;-67
2021/10/26 03:51:01;;;;;;;17.87;16.17;;;11.60;99.90;;;;;;5072808;28;20439;-67
2021/10/26 03:53:28;;;;;;;19.40;16.00;;;11.50;99.90;;;;;;5072540;28;20475;-67
2021/10/26 03:55:58;;;;;;;19.00;16.60;;;11.40;99.90;;;;;;5072816;28;20538;-67
2021/10/26 03:58:25;;;;;;;18.03;16.63;;;11.30;99.90;;;;;;5053469;28;20453;-67
2021/10/26 04:00:52;;;;;;;19.50;17.60;;;11.20;99.90;;;;;;5056163;28;20459;-68
2021/10/26 04:03:19;;;;;;;17.90;16.30;;;11.20;99.90;;;;;;5072621;28;20916;-66
2021/10/26 04:05:49;;;;;;;18.63;16.63;;;11.20;99.90;;;;;;5064783;28;20561;-67
2021/10/26 04:08:24;;;;;;;17.23;15.67;;;11.20;99.90;;;;;;5059153;28;20463;-66
2021/10/26 04:10:54;;;;;;;22.93;16.60;;;11.20;99.90;;;;;;5041164;28;20526;-67
2021/10/26 04:13:23;;;;;;;20.80;16.37;;;11.30;99.90;;;;;;5040673;28;20468;-65
2021/10/26 04:15:51;;;;;;;18.73;16.07;;;11.30;99.90;;;;;;5048447;28;20490;-66
2021/10/26 04:18:19;;;;;;;17.30;15.53;;;11.40;99.90;;;;;;5060391;28;20447;-66
2021/10/26 04:20:45;;;;;;;17.33;15.17;;;11.40;99.90;;;;;;5054725;28;20448;-66
2021/10/26 04:23:12;;;;;;;23.83;16.33;;;11.50;99.90;;;;;;5040481;28;20773;-66
2021/10/26 04:25:39;;;;;;;24.07;15.53;;;11.60;99.90;;;;;;5040655;28;20459;-66
2021/10/26 04:28:06;;;;;;;27.53;18.23;;;11.60;99.90;;;;;;5040141;28;20929;-66
2021/10/26 04:30:36;;;;;;;17.63;16.13;;;11.70;99.90;;;;;;5040144;28;20507;-67
2021/10/26 04:33:04;;;;;;;17.80;15.87;;;11.70;99.90;;;;;;5049101;28;20471;-66
2021/10/26 04:35:31;;;;;;;18.77;16.70;;;11.70;99.90;;;;;;5060256;28;20494;-66
2021/10/26 04:37:59;;;;;;;17.67;15.70;;;11.70;99.90;;;;;;5058519;28;20451;-66
2021/10/26 04:40:26;;;;;;;24.37;17.67;;;11.70;99.90;;;;;;5059998;28;20529;-68
2021/10/26 04:42:52;;;;;;;24.57;15.50;;;11.70;99.90;;;;;;5059479;28;20546;-66
2021/10/26 04:45:21;;;;;;;16.60;14.90;;;11.80;99.90;;;;;;5049574;28;20451;-66
2021/10/26 04:47:50;;;;;;;25.87;15.70;;;11.80;99.90;;;;;;5039739;28;20805;-66
2021/10/26 04:50:17;;;;;;;18.37;16.30;;;11.80;99.90;;;;;;5040307;28;20912;-66
2021/10/26 04:52:44;;;;;;;19.47;16.43;;;11.80;99.90;;;;;;5039835;28;20481;-67
2021/10/26 04:55:11;;;;;;;28.63;17.10;;;11.90;99.90;;;;;;5039823;28;20488;-67
2021/10/26 04:57:41;;;;;;;18.20;16.40;;;11.90;99.90;;;;;;5051116;28;20454;-67
2021/10/26 05:00:10;;;;;;;18.00;16.30;;;11.90;99.90;;;;;;5059663;28;21082;-67
2021/10/26 05:02:37;;;;;;;17.93;16.37;;;11.90;99.90;;;;;;5059606;28;20918;-67
2021/10/26 05:05:06;;;;;;;17.37;15.57;;;11.90;99.90;;;;;;5059920;28;20435;-67
2021/10/26 05:07:34;;;;;;;17.20;15.60;;;11.90;99.90;;;;;;5060092;28;20447;-67
2021/10/26 05:10:01;;;;;;;17.33;15.63;;;11.90;99.90;;;;;;5045717;28;20449;-67
2021/10/26 05:12:28;;;;;;;17.10;15.60;;;11.90;99.90;;;;;;5039719;28;20468;-67
2021/10/26 05:14:54;;;;;;;16.80;15.37;;;11.90;99.90;;;;;;5039943;28;21084;-68
2021/10/26 05:17:24;;;;;;;17.10;15.60;;;11.90;99.90;;;;;;5039608;28;20443;-67
2021/10/26 05:19:52;;;;;;;17.53;16.00;;;11.90;99.90;;;;;;5039659;28;20448;-68
2021/10/26 05:22:23;;;;;;;16.73;15.33;;;11.80;99.90;;;;;;5054498;28;20467;-67
2021/10/26 05:24:50;;;;;;;17.53;15.93;;;11.70;99.90;;;;;;5059313;28;20455;-66
2021/10/26 05:27:19;;;;;;;16.73;15.40;;;11.70;99.90;;;;;;5059675;28;20448;-67
2021/10/26 05:29:46;;;;;;;17.10;15.63;;;11.70;99.90;;;;;;5059284;28;20447;-67
2021/10/26 05:32:14;;;;;;;16.90;15.30;;;11.70;99.90;;;;;;5050279;28;20480;-68
2021/10/26 05:34:42;;;;;;;15.73;14.23;;;11.70;99.90;;;;;;5039612;28;20486;-67
2021/10/26 05:37:11;;;;;;;18.83;15.23;;;11.80;99.90;;;;;;5039451;28;21005;-66
2021/10/26 05:39:40;;;;;;;16.37;14.70;;;11.80;99.90;;;;;;5039448;28;20556;-66
2021/10/26 05:42:07;;;;;;;17.57;15.53;;;11.80;99.90;;;;;;5047389;28;21031;-67
2021/10/26 05:44:35;;;;;;;15.97;14.73;;;11.80;99.90;;;;;;5059343;28;20451;-67
2021/10/26 05:47:02;;;;;;;16.40;15.03;;;11.80;99.90;;;;;;5059562;28;20498;-67
2021/10/26 05:49:28;;;;;;;15.83;14.33;;;11.80;99.90;;;;;;5059336;28;21056;-67
2021/10/26 05:51:55;;;;;;;17.40;14.27;;;11.90;99.90;;;;;;5059369;28;21260;-66
2021/10/26 05:54:22;;;;;;;16.77;13.73;;;11.90;99.90;;;;;;5048497;28;20459;-66
2021/10/26 05:56:50;;;;;;;19.80;15.50;;;11.90;99.90;;;;;;5039459;28;21072;-67
2021/10/26 05:59:17;;;;;;;16.90;15.10;;;11.90;99.90;;;;;;5039453;28;20448;-66
2021/10/26 06:01:43;;;;;;;17.30;15.70;;;11.90;99.90;;;;;;5039393;28;20452;-66
2021/10/26 06:04:10;;;;;;;16.27;14.87;;;12.00;99.90;;;;;;5039119;28;20451;-66
2021/10/26 06:06:37;;;;;;;17.43;15.63;;;12.00;99.90;;;;;;5054382;28;20447;-66
2021/10/26 06:09:05;;;;;;;16.70;14.90;;;12.00;99.90;;;;;;5059088;28;20447;-66
2021/10/26 06:11:32;;;;;;;17.90;16.07;;;12.00;99.90;;;;;;5059429;28;20545;-66
2021/10/26 06:14:02;;;;;;;16.47;14.43;;;12.00;99.90;;;;;;5052031;28;20483;-66
2021/10/26 06:16:30;;;;;;;15.90;14.17;;;12.10;99.90;;;;;;5039354;28;20985;-65
2021/10/26 06:18:56;;;;;;;16.77;15.20;;;12.10;99.90;;;;;;5039172;28;20448;-66
2021/10/26 06:21:23;;;;;;;18.10;15.57;;;12.10;99.90;;;;;;5040252;28;20483;-66
2021/10/26 06:23:50;;;;;;;14.70;13.33;;;12.10;99.90;;;;;;5048202;28;20835;-66
2021/10/26 06:26:17;;;;;;;16.00;14.60;;;12.20;99.90;;;;;;5062755;28;20446;-66
2021/10/26 06:28:45;;;;;;;16.60;15.30;;;12.20;99.90;;;;;;5062085;28;20451;-65
2021/10/26 06:31:13;;;;;;;15.40;14.00;;;12.20;99.90;;;;;;5062678;28;21004;-65
2021/10/26 06:33:40;;;;;;;17.00;15.50;;;12.20;99.90;;;;;;5062786;28;20556;-65
2021/10/26 06:36:06;;;;;;;15.67;14.17;;;12.20;99.90;;;;;;5054773;28;20488;-66
2021/10/26 06:38:33;;;;;;;16.50;14.33;;;12.30;99.90;;;;;;5042373;28;20449;-65
2021/10/26 06:41:01;;;;;;;16.77;15.47;;;12.30;99.90;;;;;;5042443;28;20455;-66
2021/10/26 06:43:28;;;;;;;16.87;15.17;;;12.40;99.90;;;;;;5042233;28;20468;-67
2021/10/26 06:45:54;;;;;;;17.03;15.40;;;12.40;99.90;;;;;;5059624;28;20534;-67
2021/10/26 06:48:23;;;;;;;16.07;14.53;;;12.40;99.90;;;;;;5062293;28;20435;-66
2021/10/26 06:50:50;;;;;;;16.00;14.47;;;12.40;99.90;;;;;;5062319;28;20447;-70
2021/10/26 06:53:17;;;;;;;16.10;14.90;;;12.50;99.90;;;;;;5050770;28;20476;-70
2021/10/26 06:55:44;;;;;;;15.90;14.63;;;12.50;99.90;;;;;;5042152;28;20491;-68
2021/10/26 06:58:11;;;;;;;16.83;15.50;;;12.50;99.90;;;;;;5041964;28;20448;-69
2021/10/26 07:00:38;;;;;;;16.07;14.93;;;12.60;99.90;;;;;;5041978;28;20448;-69
2021/10/26 07:03:06;;;;;;;17.97;16.43;;;12.60;99.90;;;;;;5051390;28;20494;-68
2021/10/26 07:05:34;;;;;;;15.90;14.87;;;12.60;99.90;;;;;;5061998;28;20452;-68
2021/10/26 07:08:01;;;;;;;18.10;14.53;;;12.60;99.90;;;;;;5061523;28;20452;-69
2021/10/26 07:10:28;;;;;;;16.47;15.17;;;12.60;99.90;;;;;;5062094;28;20443;-69
2021/10/26 07:12:55;;;;;;;17.83;16.40;;;12.70;99.90;;;;;;5062187;28;20482;-69
2021/10/26 07:15:23;;;;;;;18.27;16.03;;;12.70;99.90;;;;;;5049362;28;20511;-68
2021/10/26 07:17:50;;;;;;;16.40;15.00;;;12.80;99.90;;;;;;5041713;28;21275;-69
2021/10/26 07:20:17;;;;;;;17.83;16.03;;;12.80;99.90;;;;;;5041691;28;20448;-69
2021/10/26 07:22:52;;;;;;;21.07;17.27;;;12.90;99.90;;;;;;5041688;28;20464;-69
2021/10/26 07:25:20;;;;;;;16.20;14.87;;;13.00;99.90;;;;;;5041562;28;20443;-68
2021/10/26 07:27:54;;;;;;;17.60;15.90;;;13.10;99.90;;;;;;5057953;28;20455;-69
2021/10/26 07:30:21;;;;;;;18.27;16.87;;;13.10;99.90;;;;;;5061658;28;20446;-69
2021/10/26 07:32:48;;;;;;;17.27;15.93;;;13.20;99.90;;;;;;5061052;28;20464;-68
2021/10/26 07:35:15;;;;;;;19.67;17.50;;;13.20;99.90;;;;;;5061321;28;20490;-69
2021/10/26 07:37:44;;;;;;;16.03;14.77;;;13.30;99.90;;;;;;5061318;28;20505;-68
2021/10/26 07:40:13;;;;;;;17.13;15.73;;;13.40;99.90;;;;;;5041901;28;20960;-68
2021/10/26 07:42:41;;;;;;;16.00;14.90;;;13.50;99.90;;;;;;5041214;28;21277;-69
2021/10/26 07:45:09;;;;;;;18.23;16.77;;;13.60;99.90;;;;;;5041409;28;20444;-69
2021/10/26 07:47:37;;;;;;;17.50;15.77;;;13.70;99.90;;;;;;5053089;28;20523;-69
2021/10/26 07:50:05;;;;;;;17.93;16.57;;;13.70;99.90;;;;;;5060887;28;20457;-70
2021/10/26 07:52:32;;;;;;;18.67;16.80;;;13.90;99.90;;;;;;5060985;28;20483;-68
2021/10/26 07:54:59;;;;;;;18.07;16.80;;;13.90;99.90;;;;;;5060869;28;20443;-69
2021/10/26 07:57:28;;;;;;;18.10;17.00;;;14.00;99.90;;;;;;5050557;28;21151;-68
2021/10/26 07:59:55;;;;;;;18.00;16.83;;;14.10;99.90;;;;;;5040740;28;20456;-69
2021/10/26 08:02:23;;;;;;;19.13;17.60;;;14.20;99.90;;;;;;5040890;28;20464;-68
2021/10/26 08:04:50;;;;;;;19.10;17.13;;;14.20;99.90;;;;;;5041135;28;20906;-68
2021/10/26 08:07:18;;;;;;;17.17;16.27;;;14.30;99.90;;;;;;5048921;28;21011;-68
2021/10/26 08:09:46;;;;;;;19.57;18.20;;;14.40;99.90;;;;;;5060446;28;20454;-69
2021/10/26 08:12:13;;;;;;;20.17;18.47;;;14.50;99.90;;;;;;5060726;28;20467;-68
2021/10/26 08:14:42;;;;;;;18.77;17.40;;;14.50;99.90;;;;;;5060077;28;20447;-68
2021/10/26 08:17:09;;;;;;;19.77;18.30;;;14.60;99.90;;;;;;5040405;28;20484;-68
2021/10/26 08:19:36;;;;;;;19.27;17.70;;;14.70;99.90;;;;;;5040448;28;20448;-68
2021/10/26 08:22:05;;;;;;;18.80;17.53;;;14.90;99.90;;;;;;5040366;28;21234;-67
2021/10/26 08:24:33;;;;;;;19.13;17.63;;;14.90;99.90;;;;;;5040297;28;20456;-68
2021/10/26 08:27:01;;;;;;;18.90;17.80;;;14.90;99.90;;;;;;5060119;28;20498;-68
2021/10/26 08:29:37;;;;;;;19.80;18.10;;;14.90;99.90;;;;;;5060060;28;20451;-73
2021/10/26 08:32:24;;;;;;;18.57;17.33;;;14.90;99.90;;;;;;5060260;28;21079;-68
2021/10/26 08:34:53;;;;;;;19.07;17.57;;;14.90;99.90;;;;;;5060530;28;20604;-68
2021/10/26 08:37:20;;;;;;;18.27;17.23;;;14.90;99.90;;;;;;5056386;28;20491;-68
2021/10/26 08:39:46;;;;;;;18.20;17.30;;;14.90;99.90;;;;;;5040326;28;20444;-69
2021/10/26 08:42:17;;;;;;;19.07;18.07;;;14.90;99.90;;;;;;5040180;28;20475;-68
2021/10/26 08:44:45;;;;;;;18.30;17.03;;;14.90;99.90;;;;;;5039806;28;20448;-69
2021/10/26 08:47:15;;;;;;;19.17;17.70;;;15.00;99.90;;;;;;5040383;28;20448;-69
2021/10/26 08:49:44;;;;;;;18.37;17.10;;;15.00;99.90;;;;;;5044963;28;20450;-68
2021/10/26 08:52:11;;;;;;;18.60;17.67;;;15.10;99.90;;;;;;5059947;28;20577;-66
2021/10/26 08:54:37;;;;;;;18.37;17.47;;;15.20;99.90;;;;;;5054587;28;20794;-67
2021/10/26 08:57:05;;;;;;;18.33;17.50;;;15.30;99.90;;;;;;5041326;28;20487;-66
2021/10/26 08:59:32;;;;;;;22.10;20.20;;;15.30;99.90;;;;;;5039723;28;20456;-67
2021/10/26 09:02:00;;;;;;;18.90;17.53;;;15.30;99.90;;;;;;5040046;28;20456;-66
2021/10/26 09:04:32;;;;;;;18.83;17.60;;;15.40;99.90;;;;;;5039781;28;20458;-66
2021/10/26 09:07:04;;;;;;;18.33;17.17;;;15.30;99.90;;;;;;5040010;28;21278;-66
2021/10/26 09:09:34;;;;;;;18.73;17.70;;;15.50;99.90;;;;;;5039609;28;21246;-67
2021/10/26 09:17:34;;;;;;;19.17;17.87;;;16.00;99.90;;;;;;5039907;28;20526;-66
2021/10/26 09:20:03;;;;;;;19.17;18.03;;;16.00;99.90;;;;;;5039471;28;20451;-66
2021/10/26 09:22:32;;;;;;;21.43;19.20;;;15.90;99.90;;;;;;5039797;28;20476;-66
2021/10/26 09:25:00;;;;;;;19.47;17.90;;;15.80;99.90;;;;;;5039737;28;20452;-66
2021/10/26 09:27:28;;;;;;;19.70;18.37;;;16.00;99.90;;;;;;5039697;28;20452;-67
2021/10/26 09:29:57;;;;;;;19.30;18.00;;;16.10;99.90;;;;;;5039450;28;21368;-67
2021/10/26 09:32:33;;;;;;;21.23;19.40;;;16.50;99.90;;;;;;5039626;28;20463;-67
2021/10/26 09:35:04;;;;;;;19.90;18.30;;;16.50;99.90;;;;;;5039709;28;20924;-66
2021/10/26 09:37:34;;;;;;;19.37;18.07;;;16.70;99.90;;;;;;5039418;28;20488;-67
2021/10/26 09:40:02;;;;;;;20.20;18.90;;;16.90;99.90;;;;;;5039367;28;20533;-66
2021/10/26 09:42:38;;;;;;;20.27;19.10;;;17.10;99.90;;;;;;5039612;28;21009;-66
2021/10/26 09:45:06;;;;;;;19.57;17.77;;;17.30;99.90;;;;;;5039655;28;20864;-67
2021/10/26 09:47:36;;;;;;;20.27;18.67;;;17.20;99.90;;;;;;5039500;28;20452;-67
2021/10/26 09:50:07;;;;;;;19.97;18.60;;;17.00;99.90;;;;;;5039457;28;20452;-68
2021/10/26 09:52:36;;;;;;;20.50;19.07;;;17.10;99.90;;;;;;5039214;28;20480;-67
2021/10/26 09:55:13;;;;;;;19.50;18.50;;;16.90;99.90;;;;;;5039756;28;20901;-67
2021/10/26 09:57:41;;;;;;;20.03;18.93;;;16.80;99.90;;;;;;5042926;28;20479;-67
2021/10/26 10:00:10;;;;;;;19.97;18.67;;;16.80;99.90;;;;;;5042765;28;20443;-67
2021/10/26 10:02:37;;;;;;;19.93;18.63;;;16.90;99.90;;;;;;5053785;28;20492;-66
2021/10/26 10:05:08;;;;;;;19.93;18.90;;;17.10;99.90;;;;;;5042919;28;20542;-67
2021/10/26 10:07:36;;;;;;;19.57;18.50;;;17.20;99.90;;;;;;5042680;28;21063;-67
2021/10/26 10:10:09;;;;;;;19.50;18.17;;;17.30;99.90;;;;;;5049815;28;20459;-67
2021/10/26 10:12:37;;;;;;;20.03;18.93;;;17.60;99.90;;;;;;5058203;28;21142;-67
2021/10/26 10:15:06;;;;;;;20.47;18.90;;;17.90;99.90;;;;;;5052640;28;20448;-67
2021/10/26 10:17:35;;;;;;;19.67;18.50;;;18.20;99.90;;;;;;5059566;28;20573;-67
2021/10/26 10:20:03;;;;;;;19.00;18.00;;;17.80;99.90;;;;;;5047492;28;20456;-67
2021/10/26 10:22:32;;;;;;;19.83;18.97;;;17.90;99.90;;;;;;5042613;28;20514;-67
2021/10/26 10:25:00;;;;;;;20.70;19.50;;;17.80;99.90;;;;;;5049305;28;20455;-71
2021/10/26 10:27:29;;;;;;;20.60;19.50;;;17.90;99.90;;;;;;5062593;28;20850;-71
2021/10/26 10:29:57;;;;;;;19.50;18.47;;;18.10;99.90;;;;;;5057538;28;20456;-69
2021/10/26 10:32:24;;;;;;;20.20;19.00;;;17.80;99.90;;;;;;5042897;28;20653;-70
2021/10/26 10:34:52;;;;;;;21.80;20.30;;;17.70;99.90;;;;;;5042727;28;20488;-70
2021/10/26 10:37:22;;;;;;;20.20;19.10;;;17.60;99.90;;;;;;5042665;28;20483;-70
2021/10/26 10:39:51;;;;;;;19.30;18.40;;;17.80;99.90;;;;;;5047500;28;20455;-69
2021/10/26 10:42:22;;;;;;;19.37;18.33;;;17.90;99.90;;;;;;5062307;28;20471;-69
2021/10/26 10:44:50;;;;;;;19.93;18.77;;;18.20;99.90;;;;;;5052431;28;21021;-69
2021/10/26 10:47:39;;;;;;;19.70;18.50;;;18.40;99.90;;;;;;5042158;28;20448;-69
2021/10/26 10:50:25;;;;;;;20.87;19.57;;;18.60;99.90;;;;;;5057202;28;20461;-71
2021/10/26 10:53:14;;;;;;;19.57;18.70;;;18.50;99.90;;;;;;5062584;28;20966;-70
2021/10/26 10:55:45;;;;;;;20.90;19.70;;;18.50;99.90;;;;;;5049630;28;20448;-71
2021/10/26 10:58:27;;;;;;;21.53;20.13;;;18.80;99.90;;;;;;5060289;28;20536;-70
2021/10/26 11:01:10;;;;;;;21.27;20.27;;;19.30;99.90;;;;;;5062015;28;20443;-71
2021/10/26 11:03:37;;;;;;;20.70;19.70;;;19.60;99.90;;;;;;5061178;28;20888;-71
2021/10/26 11:06:04;;;;;;;21.73;20.70;;;19.80;99.90;;;;;;5061706;28;20450;-71
2021/10/26 11:08:44;;;;;;;20.90;19.83;;;20.00;99.90;;;;;;5045001;28;20455;-70
2021/10/26 11:11:14;;;;;;;21.33;19.83;;;20.00;99.90;;;;;;5059619;28;20497;-67
2021/10/26 11:13:41;;;;;;;20.87;20.00;;;20.10;99.90;;;;;;5056308;28;20519;-68
2021/10/26 11:16:10;;;;;;;21.10;20.00;;;20.10;99.90;;;;;;5046240;28;20455;-67
2021/10/26 11:18:39;;;;;;;22.17;21.20;;;20.20;99.90;;;;;;5050366;28;20447;-67
2021/10/26 11:21:07;;;;;;;22.10;20.60;;;19.90;99.90;;;;;;5056530;28;20448;-67
2021/10/26 11:23:37;;;;;;;21.00;20.00;;;19.30;99.90;;;;;;5045586;28;20463;-67
2021/10/26 11:26:06;;;;;;;21.43;20.53;;;18.80;99.90;;;;;;5061582;28;20836;-67
2021/10/26 11:28:46;;;;;;;21.10;20.20;;;18.60;99.90;;;;;;5061226;28;20470;-67
2021/10/26 11:31:16;;;;;;;21.87;20.90;;;19.00;99.90;;;;;;5059876;28;20458;-67
2021/10/26 11:33:57;;;;;;;21.27;20.33;;;19.90;99.90;;;;;;5061244;28;20463;-67
2021/10/26 11:36:30;;;;;;;20.03;19.30;;;20.10;99.90;;;;;;5043155;28;20569;-67
2021/10/26 11:38:59;;;;;;;21.50;20.20;;;20.30;99.90;;;;;;5060213;28;20459;-67
2021/10/26 11:41:28;;;;;;;21.30;20.30;;;20.20;99.90;;;;;;5061280;28;20458;-67
2021/10/26 11:43:58;;;;;;;21.50;20.50;;;19.70;99.90;;;;;;5061133;28;21358;-67
2021/10/26 11:46:31;;;;;;;20.70;19.80;;;19.70;99.90;;;;;;5059672;28;20450;-68
2021/10/26 11:49:02;;;;;;;19.90;19.10;;;19.80;99.90;;;;;;5047627;28;20455;-67
2021/10/26 11:51:33;;;;;;;19.83;18.97;;;19.80;99.90;;;;;;5052342;28;20447;-68
2021/10/26 11:54:02;;;;;;;21.73;20.30;;;19.80;99.90;;;;;;5061325;28;20514;-67
2021/10/26 11:56:32;;;;;;;20.63;19.73;;;20.70;99.90;;;;;;5060979;28;20533;-67
2021/10/26 11:59:05;;;;;;;20.83;19.93;;;22.00;99.00;;;;;;5050841;28;20456;-68
2021/10/26 12:01:46;;;;;;;21.60;20.47;;;22.90;95.60;;;;;;5049238;28;20452;-67
2021/10/26 12:04:27;;;;;;;21.57;20.57;;;23.40;91.60;;;;;;5043914;28;20462;-67
2021/10/26 12:06:57;;;;;;;21.30;20.40;;;24.40;86.20;;;;;;5040908;28;20451;-67
2021/10/26 12:09:25;;;;;;;20.83;20.03;;;23.80;82.60;;;;;;5042981;28;20482;-67
2021/10/26 12:11:55;;;;;;;22.17;21.17;;;24.90;76.40;;;;;;5060751;28;21011;-67
2021/10/26 12:14:26;;;;;;;20.93;20.13;;;26.80;70.30;;;;;;5058408;28;20607;-68
2021/10/26 12:17:21;;;;;;;22.03;20.83;;;25.10;62.40;;;;;;5040419;28;20494;-67
2021/10/26 12:20:03;;;;;;;23.10;21.73;;;24.50;66.00;;;;;;5032924;28;20460;-67
2021/10/26 12:22:33;;;;;;;23.23;22.17;;;24.10;67.30;;;;;;5020632;28;20472;-67
2021/10/26 12:25:11;;;;;;;22.73;21.70;;;23.60;66.80;;;;;;5020624;28;20455;-67
2021/10/26 12:27:40;;;;;;;21.40;20.20;;;23.10;68.50;;;;;;5020410;28;20972;-68
2021/10/26 12:30:15;;;;;;;23.00;21.73;;;23.20;73.20;;;;;;5036205;28;20458;-67
2021/10/26 12:32:49;;;;;;;22.60;21.50;;;24.80;69.30;;;;;;5044719;28;20467;-67
2021/10/26 12:35:15;;;;;;;21.37;20.37;;;25.20;64.70;;;;;;5040626;28;20476;-67
2021/10/26 12:37:43;;;;;;;21.33;20.03;;;24.00;65.80;;;;;;5039768;28;21107;-68
2021/10/26 12:40:17;;;;;;;21.00;20.20;;;22.40;69.00;;;;;;5044541;28;20456;-68